createdAt,value
2022-08-19T00:01:22.010Z,16.32
2022-08-19T00:06:30.745Z,16.28
2022-08-19T00:11:39.855Z,16.2
2022-08-19T00:16:48.152Z,16.19
2022-08-19T00:21:56.250Z,16.17
2022-08-19T00:27:03.408Z,16.14
2022-08-19T00:32:11.926Z,16.1
2022-08-19T00:37:20.009Z,16.09
2022-08-19T00:42:27.382Z,16.12
2022-08-19T00:47:35.772Z,16.12
2022-08-19T00:52:43.677Z,16.1
2022-08-19T00:57:51.724Z,16.11
2022-08-19T01:03:00.207Z,16.12
2022-08-19T01:08:07.625Z,16.16
2022-08-19T01:13:15.096Z,16.15
2022-08-19T01:18:22.883Z,16.14
2022-08-19T01:23:29.500Z,16.14
2022-08-19T01:28:37.084Z,16.15
2022-08-19T01:33:50.869Z,16.03
2022-08-19T01:38:58.217Z,15.9
2022-08-19T01:44:06.268Z,15.9
2022-08-19T01:49:14.482Z,15.92
2022-08-19T01:54:23.437Z,15.98
2022-08-19T01:59:32.750Z,15.94
2022-08-19T02:04:41.044Z,15.82
2022-08-19T02:09:49.153Z,15.75
2022-08-19T02:14:56.872Z,15.94
2022-08-19T02:20:04.572Z,16.08
2022-08-19T02:25:12.372Z,16.07
2022-08-19T02:30:19.328Z,16.14
2022-08-19T02:35:27.448Z,16.11
2022-08-19T02:40:34.598Z,16.03
2022-08-19T02:45:42.593Z,16.02
2022-08-19T02:55:47.635Z,16.03
2022-08-19T03:00:53.682Z,15.98
2022-08-19T03:06:01.828Z,15.88
2022-08-19T03:11:09.019Z,15.84
2022-08-19T03:16:17.378Z,15.76
2022-08-19T03:21:24.897Z,15.86
2022-08-19T03:26:31.920Z,15.9
2022-08-19T03:31:39.767Z,15.86
2022-08-19T03:36:46.955Z,15.84
2022-08-19T03:41:54.138Z,15.78
2022-08-19T03:47:02.823Z,15.66
2022-08-19T03:52:09.997Z,15.54
2022-08-19T03:57:17.650Z,15.52
2022-08-19T04:02:24.413Z,15.76
2022-08-19T04:07:32.977Z,16.02
2022-08-19T04:12:41.586Z,16.32
2022-08-19T04:17:49.949Z,16.5
2022-08-19T04:22:57.529Z,16.66
2022-08-19T04:28:05.169Z,16.83
2022-08-19T04:33:13.198Z,16.93
2022-08-19T04:38:21.016Z,17.04
2022-08-19T04:43:28.486Z,17.16
2022-08-19T04:48:36.064Z,17.33
2022-08-19T04:53:44.707Z,17.54
2022-08-19T04:58:52.566Z,17.89
2022-08-19T05:04:00.250Z,18.09
2022-08-19T05:09:09.122Z,18.18
2022-08-19T05:14:16.543Z,18.14
2022-08-19T05:19:23.737Z,17.94
2022-08-19T05:24:32.176Z,17.9
2022-08-19T05:29:41.606Z,17.99
2022-08-19T05:34:50.964Z,18.12
2022-08-19T05:40:00.276Z,17.99
2022-08-19T05:45:07.424Z,17.9
2022-08-19T05:50:15.290Z,17.89
2022-08-19T05:55:23.312Z,18.02
2022-08-19T06:00:29.727Z,18.24
2022-08-19T06:05:36.893Z,18.57
2022-08-19T06:10:45.275Z,18.97
2022-08-19T06:15:53.695Z,19.53
2022-08-19T06:21:03.650Z,20.08
2022-08-19T06:26:10.820Z,20.54
2022-08-19T06:31:18.242Z,20.52
2022-08-19T06:36:25.949Z,20.73
2022-08-19T06:41:34.714Z,21.04
2022-08-19T06:46:42.133Z,21.51
2022-08-19T06:51:50.438Z,21.92
2022-08-19T06:56:58.158Z,22.4
2022-08-19T07:02:06.443Z,24.17
2022-08-19T07:07:15.929Z,26.72
2022-08-19T07:12:24.789Z,27.47
2022-08-19T07:17:32.524Z,27.22
2022-08-19T07:22:40.813Z,27.25
2022-08-19T07:27:48.908Z,28.56
2022-08-19T07:32:55.922Z,29.72
2022-08-19T07:38:03.780Z,31.06
2022-08-19T07:43:12.093Z,31.74
2022-08-19T07:48:20.213Z,32.36
2022-08-19T07:53:27.900Z,33.0
2022-08-19T07:58:36.892Z,33.38
2022-08-19T08:03:44.239Z,33.39
2022-08-19T08:08:50.815Z,32.95
2022-08-19T08:13:59.194Z,31.97
2022-08-19T08:19:07.369Z,31.17
2022-08-19T08:24:16.078Z,30.34
2022-08-19T08:29:23.417Z,31.16
2022-08-19T08:34:31.449Z,31.52
2022-08-19T08:39:39.670Z,31.64
2022-08-19T08:44:47.452Z,32.33
2022-08-19T08:49:54.785Z,32.97
2022-08-19T08:55:01.336Z,34.17
2022-08-19T09:00:08.544Z,32.76
2022-08-19T09:05:15.091Z,32.26
2022-08-19T09:10:23.584Z,34.11
2022-08-19T09:15:30.782Z,35.08
2022-08-19T09:20:38.605Z,33.44
2022-08-19T09:25:47.610Z,32.81
2022-08-19T09:30:55.192Z,31.78
2022-08-19T09:36:03.294Z,30.97
2022-08-19T09:41:10.652Z,30.14
2022-08-19T09:46:17.212Z,30.26
2022-08-19T09:51:24.564Z,30.02
2022-08-19T09:56:32.465Z,28.76
2022-08-19T10:02:21.715Z,28.53
2022-08-19T10:07:30.015Z,28.2
2022-08-19T10:12:37.659Z,29.02
2022-08-19T10:17:44.949Z,29.74
2022-08-19T10:22:54.254Z,30.35
2022-08-19T10:28:01.006Z,29.97
2022-08-19T10:33:09.019Z,29.99
2022-08-19T10:38:21.968Z,31.02
2022-08-19T10:43:31.527Z,31.28
2022-08-19T10:48:39.777Z,30.52
2022-08-19T10:53:47.135Z,30.54
2022-08-19T10:58:54.569Z,32.06
2022-08-19T11:04:01.693Z,33.54
2022-08-19T11:09:10.383Z,34.27
2022-08-19T11:14:18.092Z,34.61
2022-08-19T11:19:26.302Z,35.11
2022-08-19T11:24:33.866Z,35.62
2022-08-19T11:29:41.702Z,35.19
2022-08-19T11:34:48.344Z,35.77
2022-08-19T11:39:56.140Z,36.38
2022-08-19T11:45:03.451Z,34.66
2022-08-19T11:50:10.407Z,33.63
2022-08-19T11:55:18.217Z,32.44
2022-08-19T12:00:25.959Z,31.44
2022-08-19T12:05:34.999Z,31.23
2022-08-19T12:10:42.797Z,31.22
2022-08-19T12:15:49.984Z,30.49
2022-08-19T12:20:57.186Z,29.88
2022-08-19T12:26:05.019Z,29.47
2022-08-19T12:31:12.379Z,29.34
2022-08-19T12:36:19.997Z,29.31
2022-08-19T12:41:29.130Z,29.46
2022-08-19T12:46:35.769Z,30.5
2022-08-19T12:51:43.618Z,32.07
2022-08-19T12:56:51.825Z,32.65
2022-08-19T13:01:59.855Z,31.89
2022-08-19T13:07:07.740Z,31.34
2022-08-19T13:12:14.978Z,30.72
2022-08-19T13:17:22.653Z,30.16
2022-08-19T13:22:33.345Z,29.97
2022-08-19T13:27:40.599Z,29.34
2022-08-19T13:32:47.589Z,28.88
2022-08-19T13:37:55.797Z,28.47
2022-08-19T13:43:02.875Z,28.15
2022-08-19T13:48:09.830Z,27.82
2022-08-19T13:53:17.660Z,27.88
2022-08-19T13:58:24.856Z,28.21
2022-08-19T14:03:33.732Z,28.67
2022-08-19T14:08:41.464Z,30.01
2022-08-19T14:13:50.116Z,32.3
2022-08-19T14:19:00.567Z,33.88
2022-08-19T14:24:10.744Z,35.08
2022-08-19T14:29:18.619Z,35.22
2022-08-19T14:34:26.535Z,36.19
2022-08-19T14:39:33.976Z,36.1
2022-08-19T14:44:41.812Z,36.26
2022-08-19T14:49:50.088Z,36.02
2022-08-19T14:54:56.885Z,35.61
2022-08-19T15:00:04.695Z,35.2
2022-08-19T15:05:17.015Z,34.28
2022-08-19T15:10:22.969Z,34.17
2022-08-19T15:15:30.517Z,34.26
2022-08-19T15:20:37.370Z,33.46
2022-08-19T15:25:44.243Z,33.19
2022-08-19T15:30:51.716Z,32.99
2022-08-19T15:35:58.277Z,32.6
2022-08-19T15:41:05.491Z,32.24
2022-08-19T15:46:13.288Z,31.35
2022-08-19T15:51:19.895Z,30.76
2022-08-19T15:56:27.128Z,30.2
2022-08-19T16:01:34.728Z,29.88
2022-08-19T16:06:41.661Z,29.4
2022-08-19T16:11:49.818Z,28.94
2022-08-19T16:16:57.201Z,28.68
2022-08-19T16:22:05.662Z,28.47
2022-08-19T16:27:12.879Z,28.58
2022-08-19T16:32:21.185Z,28.21
2022-08-19T16:37:27.898Z,27.88
2022-08-19T16:42:35.826Z,27.62
2022-08-19T16:47:43.014Z,27.43
2022-08-19T16:52:51.124Z,27.12
2022-08-19T16:57:59.186Z,26.75
2022-08-19T17:03:08.094Z,26.42
2022-08-19T17:08:15.615Z,25.99
2022-08-19T17:13:23.255Z,25.76
2022-08-19T17:18:30.615Z,25.6
2022-08-19T17:23:38.651Z,25.51
2022-08-19T17:28:45.049Z,25.26
2022-08-19T17:33:52.218Z,24.86
2022-08-19T17:38:58.779Z,24.46
2022-08-19T17:44:07.826Z,24.08
2022-08-19T17:49:15.670Z,23.67
2022-08-19T17:54:23.318Z,23.26
2022-08-19T17:59:30.186Z,22.84
2022-08-19T18:04:38.327Z,22.57
2022-08-19T18:09:46.445Z,22.33
2022-08-19T18:14:54.294Z,22.18
2022-08-19T18:20:02.492Z,22.02
2022-08-19T18:25:09.375Z,21.7
2022-08-19T18:30:17.444Z,21.43
2022-08-19T18:35:25.385Z,21.26
2022-08-19T18:40:32.476Z,21.04
2022-08-19T18:45:40.463Z,20.97
2022-08-19T18:50:47.293Z,20.98
2022-08-19T18:55:55.650Z,20.72
2022-08-19T19:01:03.325Z,20.46
2022-08-19T19:06:11.890Z,20.35
2022-08-19T19:11:19.764Z,20.33
2022-08-19T19:16:26.881Z,20.4
2022-08-19T19:21:35.147Z,20.52
2022-08-19T19:26:43.038Z,20.6
2022-08-19T19:31:49.714Z,20.62
2022-08-19T19:36:57.213Z,20.56
2022-08-19T19:42:04.376Z,20.32
2022-08-19T19:47:12.843Z,20.3
2022-08-19T19:52:20.550Z,20.51
2022-08-19T19:57:28.681Z,20.66
2022-08-19T20:02:36.076Z,20.78
2022-08-19T20:07:44.725Z,20.79
2022-08-19T20:12:52.053Z,20.7
2022-08-19T20:18:00.409Z,20.58
2022-08-19T20:23:08.640Z,20.51
2022-08-19T20:28:16.424Z,20.42
2022-08-19T20:33:23.463Z,20.35
2022-08-19T20:38:30.667Z,20.3
2022-08-19T20:43:37.864Z,20.25
2022-08-19T20:48:45.058Z,20.21
2022-08-19T20:53:52.258Z,20.23
2022-08-19T20:58:59.717Z,20.32
2022-08-19T21:04:07.816Z,20.28
2022-08-19T21:09:16.198Z,20.06
2022-08-19T21:14:25.041Z,19.91
2022-08-19T21:19:33.401Z,19.81
2022-08-19T21:24:40.600Z,19.64
2022-08-19T21:29:49.083Z,19.47
2022-08-19T21:34:56.850Z,19.43
2022-08-19T21:40:04.554Z,19.46
2022-08-19T21:45:13.119Z,19.46
2022-08-19T21:50:20.464Z,19.46
2022-08-19T21:55:26.934Z,18.94
2022-08-19T22:00:34.172Z,18.38
2022-08-19T22:05:42.279Z,18.12
2022-08-19T22:10:56.448Z,17.98
2022-08-19T22:16:05.117Z,17.84
2022-08-19T22:21:13.728Z,17.76
2022-08-19T22:26:20.377Z,17.76
2022-08-19T22:31:27.726Z,17.73
2022-08-19T22:36:35.563Z,17.7
2022-08-19T22:41:43.763Z,17.68
2022-08-19T22:46:50.583Z,17.7
2022-08-19T22:51:58.302Z,17.66
2022-08-19T22:57:09.561Z,17.72
2022-08-19T22:58:43.079Z,17.72
2022-08-19T23:03:49.978Z,17.7
2022-08-19T23:08:56.571Z,17.7
2022-08-19T23:14:05.015Z,17.72
2022-08-19T23:19:13.102Z,17.72
2022-08-19T23:24:21.726Z,17.72
2022-08-19T23:29:29.768Z,17.71
2022-08-19T23:34:37.050Z,17.66
2022-08-19T23:39:43.573Z,17.67
2022-08-19T23:44:51.449Z,17.69
2022-08-19T23:50:00.407Z,17.76
2022-08-19T23:55:09.513Z,17.82
